Silver Shark — T8A2060 — position and weather

sailwx.info

Track history (hours):
 
Tides and Currents Weather Stations Pressure Air Temp Water Temp Dewpoint Dewpoint Depression Visibility Wind Speed Wind Dir Waves Ship Positions

Silver Shark

Last reported at 2017-Nov-12 03:33 UTC. Time now 2017-Nov-23 11:13 UTC.
Position N 46°35' E 031°03'.
Warning: this ship's position is 11 days out of date.

Length 167 m; draft 5.3 m.

Type: Cargo ship. MMSI: 511103000.

Date/timePositionNaut miles runAvg speedWind from/ knotsBaromVisibWave heightAir tempDewpointWater temp
2017-Nov-12 03:33N 46°35' E 031°03'0 0.0
2017-Nov-12 03:22N 46°35' E 031°03'0 0.0
2017-Nov-12 02:55N 46°35' E 031°04'0 0.0
2017-Nov-12 02:28N 46°35' E 031°04'0 0.0
2017-Nov-12 01:30N 46°35' E 031°04'  
2017-Nov-07 15:16N 46°34' E 031°03'2 5.3
2017-Nov-07 14:59N 46°33' E 031°01'4 7.1
2017-Nov-07 14:26N 46°30' E 030°57'4 9.9
2017-Nov-07 13:59N 46°26' E 030°57'341 9.6
2017-Nov-06 02:22N 40°56' E 028°55'1 0.0
2017-Nov-05 00:47N 40°57' E 028°54'3 4.5
2017-Nov-05 00:09N 40°56' E 028°57'3 8.6
2017-Nov-04 23:48N 40°54' E 028°55'3 9.8
2017-Nov-04 23:30N 40°52' E 028°52'510.4
2017-Nov-04 23:00N 40°51' E 028°45'236 8.2
2017-Nov-03 18:22N 37°36' E 025°54'412.1
2017-Nov-03 18:00N 37°32' E 025°55'  
Track history (hours):
 
Tides and Currents Weather Stations Pressure Air Temp Water Temp Dewpoint Dewpoint Depression Visibility Wind Speed Wind Dir Waves Ship Positions

Silver Shark

Last reported at 2017-Nov-12 03:33 UTC. Time now 2017-Nov-23 11:13 UTC.
Position N 46°35' E 031°03'.
Warning: this ship's position is 11 days out of date.

Length 167 m; draft 5.3 m.

Type: Cargo ship. MMSI: 511103000.

Date/timePositionNaut miles runAvg speedWind from/ knotsBaromVisibWave heightAir tempDewpointWater temp
2017-Nov-12 03:33N 46°35' E 031°03'0 0.0
2017-Nov-12 03:22N 46°35' E 031°03'0 0.0
2017-Nov-12 02:55N 46°35' E 031°04'0 0.0
2017-Nov-12 02:28N 46°35' E 031°04'0 0.0
2017-Nov-12 01:30N 46°35' E 031°04'  
2017-Nov-07 15:16N 46°34' E 031°03'2 5.3
2017-Nov-07 14:59N 46°33' E 031°01'4 7.1
2017-Nov-07 14:26N 46°30' E 030°57'4 9.9
2017-Nov-07 13:59N 46°26' E 030°57'341 9.6
2017-Nov-06 02:22N 40°56' E 028°55'1 0.0
2017-Nov-05 00:47N 40°57' E 028°54'3 4.5
2017-Nov-05 00:09N 40°56' E 028°57'3 8.6
2017-Nov-04 23:48N 40°54' E 028°55'3 9.8
2017-Nov-04 23:30N 40°52' E 028°52'510.4
2017-Nov-04 23:00N 40°51' E 028°45'236 8.2
2017-Nov-03 18:22N 37°36' E 025°54'412.1
2017-Nov-03 18:00N 37°32' E 025°55'  

Dump ship's entire track history